createdAt,value
2018-08-19T00:01:53.090Z,66.90
2018-08-19T00:04:20.390Z,65.50
2018-08-19T00:06:47.735Z,65.90
2018-08-19T00:09:15.102Z,66.90
2018-08-19T00:11:43.172Z,67.00
2018-08-19T00:14:22.062Z,67.20
2018-08-19T00:16:49.387Z,66.70
2018-08-19T00:19:16.702Z,66.60
2018-08-19T00:21:44.031Z,66.70
2018-08-19T00:24:11.344Z,66.30
2018-08-19T00:26:38.640Z,66.10
2018-08-19T00:29:05.964Z,67.10
2018-08-19T00:31:33.279Z,67.20
2018-08-19T00:34:00.579Z,66.90
2018-08-19T00:36:30.346Z,68.00
2018-08-19T00:38:57.641Z,67.90
2018-08-19T00:41:24.971Z,67.80
2018-08-19T00:43:52.975Z,68.00
2018-08-19T00:46:27.495Z,67.60
2018-08-19T00:48:54.831Z,67.60
2018-08-19T00:51:22.155Z,67.40
2018-08-19T00:53:49.450Z,67.40
2018-08-19T00:56:16.789Z,67.90
2018-08-19T00:58:44.138Z,67.90
2018-08-19T01:01:22.978Z,67.50
2018-08-19T01:03:53.591Z,67.90
2018-08-19T01:06:20.904Z,68.00
2018-08-19T01:08:48.190Z,67.80
2018-08-19T01:11:25.162Z,67.40
2018-08-19T01:13:52.454Z,67.70
2018-08-19T01:16:19.775Z,67.90
2018-08-19T01:18:47.071Z,68.00
2018-08-19T01:21:14.386Z,68.20
2018-08-19T01:23:41.710Z,69.00
2018-08-19T01:26:09.016Z,69.50
2018-08-19T01:28:36.306Z,69.70
2018-08-19T01:31:03.762Z,68.80
2018-08-19T01:33:31.074Z,70.10
2018-08-19T01:35:58.396Z,69.30
2018-08-19T01:38:25.723Z,69.10
2018-08-19T01:40:53.041Z,69.40
2018-08-19T01:43:20.355Z,69.20
2018-08-19T01:45:47.646Z,69.00
2018-08-19T01:48:14.968Z,69.20
2018-08-19T01:50:42.269Z,69.00
2018-08-19T01:53:09.677Z,69.20
2018-08-19T01:55:36.982Z,69.80
2018-08-19T01:58:04.547Z,70.00
2018-08-19T02:00:31.861Z,69.40
2018-08-19T02:03:01.877Z,70.40
2018-08-19T02:05:29.198Z,70.70
2018-08-19T02:07:57.193Z,70.20
2018-08-19T02:10:24.911Z,70.30
2018-08-19T02:12:52.432Z,70.80
2018-08-19T02:15:20.642Z,70.80
2018-08-19T02:17:48.393Z,70.60
2018-08-19T02:20:15.850Z,70.10
2018-08-19T02:22:43.182Z,70.30
2018-08-19T02:25:10.483Z,69.70
2018-08-19T02:27:37.827Z,70.40
2018-08-19T02:30:05.133Z,70.10
2018-08-19T02:32:32.471Z,70.40
2018-08-19T02:34:59.758Z,70.80
2018-08-19T02:37:27.095Z,70.50
2018-08-19T02:39:54.379Z,70.30
2018-08-19T02:42:21.713Z,69.70
2018-08-19T02:44:49.366Z,69.90
2018-08-19T02:47:16.668Z,69.70
2018-08-19T02:49:43.960Z,69.80
2018-08-19T02:52:11.296Z,70.20
2018-08-19T02:54:38.595Z,70.80
2018-08-19T02:57:05.931Z,70.50
2018-08-19T02:59:33.219Z,70.70
2018-08-19T03:02:00.571Z,71.50
2018-08-19T03:04:27.903Z,70.70
2018-08-19T03:06:55.241Z,70.60
2018-08-19T03:09:22.568Z,70.60
2018-08-19T03:12:00.031Z,71.50
2018-08-19T03:14:27.398Z,72.00
2018-08-19T03:16:54.754Z,71.30
2018-08-19T03:19:22.075Z,71.00
2018-08-19T03:21:49.417Z,71.30
2018-08-19T03:24:16.730Z,71.10
2018-08-19T03:26:44.064Z,70.70
2018-08-19T03:29:11.404Z,71.10
2018-08-19T03:31:38.787Z,71.60
2018-08-19T03:34:06.175Z,71.10
2018-08-19T03:36:33.560Z,71.10
2018-08-19T03:39:10.768Z,71.60
2018-08-19T03:41:38.099Z,71.60
2018-08-19T03:44:05.442Z,72.00
2018-08-19T03:46:32.780Z,71.90
2018-08-19T03:49:00.219Z,71.50
2018-08-19T03:51:27.947Z,71.50
2018-08-19T03:53:55.331Z,71.20
2018-08-19T03:56:22.681Z,71.50
2018-08-19T03:58:50.021Z,72.00
2018-08-19T04:01:27.486Z,72.50
2018-08-19T04:03:54.863Z,72.10
2018-08-19T04:06:22.198Z,72.00
2018-08-19T04:08:49.539Z,72.50
2018-08-19T04:11:16.863Z,72.70
2018-08-19T04:13:44.251Z,73.20
2018-08-19T04:16:11.700Z,72.90
2018-08-19T04:18:39.039Z,72.60
2018-08-19T04:21:06.665Z,72.20
2018-08-19T04:23:34.090Z,72.00
2018-08-19T04:26:01.314Z,72.10
2018-08-19T04:28:28.688Z,72.30
2018-08-19T04:30:56.096Z,73.00
2018-08-19T04:33:23.450Z,73.10
2018-08-19T04:35:50.776Z,72.60
2018-08-19T04:38:18.088Z,73.40
2018-08-19T04:40:45.440Z,73.60
2018-08-19T04:43:12.799Z,73.30
2018-08-19T04:45:40.136Z,73.80
2018-08-19T04:48:07.451Z,74.10
2018-08-19T04:50:34.802Z,73.90
2018-08-19T04:53:02.196Z,73.20
2018-08-19T04:55:29.550Z,72.60
2018-08-19T04:57:56.990Z,72.40
2018-08-19T05:00:24.344Z,72.50
2018-08-19T05:02:51.661Z,71.90
2018-08-19T05:05:19.018Z,72.40
2018-08-19T05:07:46.429Z,71.90
2018-08-19T05:10:13.753Z,72.10
2018-08-19T05:12:41.062Z,72.20
2018-08-19T05:15:08.412Z,73.00
2018-08-19T05:17:35.764Z,72.90
2018-08-19T05:20:12.175Z,73.20
2018-08-19T05:22:39.872Z,73.20
2018-08-19T05:25:07.192Z,73.20
2018-08-19T05:27:34.531Z,72.90
2018-08-19T05:30:01.860Z,72.60
2018-08-19T05:32:29.244Z,72.40
2018-08-19T05:34:56.571Z,72.10
2018-08-19T05:37:23.928Z,71.70
2018-08-19T05:39:51.273Z,71.50
2018-08-19T05:42:18.605Z,71.50
2018-08-19T05:44:45.931Z,71.10
2018-08-19T05:47:16.296Z,71.30
2018-08-19T05:49:43.562Z,71.20
2018-08-19T05:52:10.898Z,71.40
2018-08-19T05:54:38.245Z,71.40
2018-08-19T05:57:05.563Z,71.30
2018-08-19T05:59:33.476Z,71.60
2018-08-19T06:02:00.884Z,71.70
2018-08-19T06:04:28.210Z,71.70
2018-08-19T06:06:55.538Z,71.70
2018-08-19T06:09:22.864Z,71.70
2018-08-19T06:11:50.175Z,71.50
2018-08-19T06:14:17.500Z,71.30
2018-08-19T06:16:44.810Z,71.10
2018-08-19T06:19:12.120Z,71.00
2018-08-19T06:21:39.458Z,70.80
2018-08-19T06:24:06.835Z,70.70
2018-08-19T06:26:34.157Z,70.60
2018-08-19T06:29:01.482Z,70.70
2018-08-19T06:31:28.793Z,70.60
2018-08-19T06:33:56.109Z,70.30
2018-08-19T06:36:23.449Z,70.20
2018-08-19T06:38:50.764Z,70.30
2018-08-19T06:41:18.077Z,70.00
2018-08-19T06:43:45.566Z,69.60
2018-08-19T06:46:13.004Z,69.20
2018-08-19T06:48:40.286Z,68.80
2018-08-19T06:51:07.650Z,68.60
2018-08-19T06:53:34.966Z,68.70
2018-08-19T06:56:02.278Z,68.40
2018-08-19T06:58:29.610Z,68.00
2018-08-19T07:00:56.956Z,67.90
2018-08-19T07:03:24.384Z,67.10
2018-08-19T07:06:03.056Z,67.20
2018-08-19T07:08:30.457Z,66.80
2018-08-19T07:10:57.787Z,66.90
2018-08-19T07:13:25.130Z,66.80
2018-08-19T07:15:52.453Z,66.10
2018-08-19T07:18:19.754Z,65.20
2018-08-19T07:20:47.087Z,65.00
2018-08-19T07:23:14.401Z,64.90
2018-08-19T07:25:41.730Z,65.30
2018-08-19T07:28:09.644Z,65.10
2018-08-19T07:30:37.071Z,64.70
2018-08-19T07:33:04.607Z,64.60
2018-08-19T07:35:31.915Z,64.60
2018-08-19T07:37:59.434Z,63.70
2018-08-19T07:40:26.766Z,63.50
2018-08-19T07:42:54.157Z,63.60
2018-08-19T07:45:21.533Z,63.80
2018-08-19T07:47:48.830Z,63.40
2018-08-19T07:50:16.204Z,63.10
2018-08-19T07:52:43.544Z,63.10
2018-08-19T07:55:10.856Z,63.90
2018-08-19T07:57:40.340Z,63.20
2018-08-19T08:00:08.031Z,63.30
2018-08-19T08:02:35.318Z,62.40
2018-08-19T08:05:02.799Z,62.80
2018-08-19T08:07:30.849Z,62.80
2018-08-19T08:09:58.202Z,62.30
2018-08-19T08:12:25.534Z,61.50
2018-08-19T08:14:52.898Z,61.90
2018-08-19T08:17:20.211Z,62.20
2018-08-19T08:19:47.607Z,61.10
2018-08-19T08:22:15.015Z,60.30
2018-08-19T08:24:42.516Z,60.00
2018-08-19T08:27:10.026Z,60.50
2018-08-19T08:29:37.519Z,60.00
2018-08-19T08:32:04.854Z,59.30
2018-08-19T08:34:32.188Z,60.00
2018-08-19T08:36:59.553Z,60.00
2018-08-19T08:39:26.880Z,59.90
2018-08-19T08:41:54.302Z,59.20
2018-08-19T08:44:21.623Z,59.10
2018-08-19T08:46:48.992Z,59.20
2018-08-19T08:49:16.322Z,58.70
2018-08-19T08:51:43.630Z,57.80
2018-08-19T08:54:11.051Z,57.90
2018-08-19T08:56:38.471Z,58.00
2018-08-19T08:59:05.823Z,57.80
2018-08-19T09:01:33.244Z,57.60
2018-08-19T09:04:00.628Z,56.30
2018-08-19T09:06:27.919Z,56.60
2018-08-19T09:08:55.603Z,56.50
2018-08-19T09:11:23.086Z,56.10
2018-08-19T09:13:50.465Z,56.50
2018-08-19T09:16:17.743Z,56.10
2018-08-19T09:18:45.106Z,55.20
2018-08-19T09:21:12.435Z,55.30
2018-08-19T09:23:39.760Z,53.60
2018-08-19T09:26:07.283Z,55.20
2018-08-19T09:28:34.589Z,54.80
2018-08-19T09:31:01.951Z,53.90
2018-08-19T09:33:29.431Z,55.20
2018-08-19T09:35:56.758Z,55.30
2018-08-19T09:38:24.070Z,55.30
2018-08-19T09:40:51.528Z,55.70
2018-08-19T09:43:18.755Z,55.40
2018-08-19T09:45:46.179Z,55.30
2018-08-19T09:48:13.503Z,54.40
2018-08-19T09:50:40.851Z,55.40
2018-08-19T09:53:08.158Z,54.60
2018-08-19T09:55:35.495Z,53.90
2018-08-19T09:58:02.861Z,54.20
2018-08-19T10:00:30.185Z,54.70
2018-08-19T10:02:57.806Z,55.50
2018-08-19T10:05:25.114Z,55.30
2018-08-19T10:07:52.523Z,55.70
2018-08-19T10:10:19.769Z,55.80
2018-08-19T10:12:47.152Z,54.80
2018-08-19T10:15:14.491Z,53.30
2018-08-19T10:17:41.930Z,54.00
2018-08-19T10:20:09.188Z,54.00
2018-08-19T10:22:36.597Z,52.70
2018-08-19T10:25:03.952Z,51.80
2018-08-19T10:27:31.330Z,52.20
2018-08-19T10:29:58.671Z,51.70
2018-08-19T10:32:25.989Z,52.60
2018-08-19T10:34:53.339Z,52.70
2018-08-19T10:37:20.707Z,53.30
2018-08-19T10:39:48.061Z,51.60
2018-08-19T10:42:21.429Z,51.90
2018-08-19T10:44:48.747Z,52.60
2018-08-19T10:47:16.036Z,51.20
2018-08-19T10:49:48.481Z,49.70
2018-08-19T10:52:16.052Z,50.00
2018-08-19T10:54:44.859Z,50.40
2018-08-19T10:57:17.610Z,49.70
2018-08-19T10:59:45.001Z,50.90
2018-08-19T11:02:12.272Z,50.80
2018-08-19T11:04:39.603Z,51.10
2018-08-19T11:07:06.967Z,50.60
2018-08-19T11:09:44.511Z,50.10
2018-08-19T11:12:11.959Z,48.20
2018-08-19T11:14:39.263Z,49.50
2018-08-19T11:17:06.572Z,49.10
2018-08-19T11:19:33.883Z,47.50
2018-08-19T11:22:01.243Z,47.80
2018-08-19T11:24:28.548Z,48.60
2018-08-19T11:26:55.847Z,48.90
2018-08-19T11:29:23.171Z,46.20
2018-08-19T11:31:50.502Z,46.70
2018-08-19T11:34:17.805Z,47.90
2018-08-19T11:36:45.148Z,48.70
2018-08-19T11:39:12.632Z,48.80
2018-08-19T11:41:39.989Z,48.60
2018-08-19T11:44:09.497Z,47.40
2018-08-19T11:46:36.819Z,46.80
2018-08-19T11:49:04.151Z,48.00
2018-08-19T11:51:44.880Z,46.50
2018-08-19T11:54:12.172Z,47.00
2018-08-19T11:56:39.511Z,47.40
2018-08-19T11:59:07.311Z,48.00
2018-08-19T12:01:34.674Z,48.50
2018-08-19T12:04:05.429Z,47.40
2018-08-19T12:06:32.758Z,47.40
2018-08-19T12:09:00.113Z,46.90
2018-08-19T12:11:28.614Z,48.10
2018-08-19T12:13:55.949Z,45.40
2018-08-19T12:16:23.367Z,46.90
2018-08-19T12:18:50.725Z,46.80
2018-08-19T12:21:18.042Z,47.30
2018-08-19T12:23:45.366Z,46.20
2018-08-19T12:26:12.696Z,46.40
2018-08-19T12:28:39.985Z,46.10
2018-08-19T12:31:09.718Z,46.80
2018-08-19T12:33:37.057Z,46.20
2018-08-19T12:36:04.843Z,46.50
2018-08-19T12:38:32.795Z,46.40
2018-08-19T12:41:02.185Z,46.30
2018-08-19T12:43:29.538Z,46.60
2018-08-19T12:45:58.074Z,46.60
2018-08-19T12:48:25.459Z,44.50
2018-08-19T12:50:53.074Z,44.40
2018-08-19T12:53:20.646Z,44.80
2018-08-19T12:55:48.029Z,44.30
2018-08-19T12:58:15.279Z,44.50
2018-08-19T13:00:42.665Z,45.10
2018-08-19T13:03:10.237Z,44.50
2018-08-19T13:05:49.171Z,44.50
2018-08-19T13:08:16.495Z,44.70
2018-08-19T13:10:43.802Z,44.00
2018-08-19T13:13:11.153Z,44.10
2018-08-19T13:15:38.460Z,43.80
2018-08-19T13:18:05.801Z,44.30
2018-08-19T13:20:33.313Z,43.80
2018-08-19T13:23:00.697Z,44.40
2018-08-19T13:25:28.079Z,44.50
2018-08-19T13:27:55.440Z,43.70
2018-08-19T13:30:22.751Z,44.10
2018-08-19T13:32:50.071Z,44.60
2018-08-19T13:35:17.394Z,45.30
2018-08-19T13:37:44.692Z,44.60
2018-08-19T13:40:11.999Z,44.80
2018-08-19T13:42:39.323Z,44.20
2018-08-19T13:45:06.706Z,45.10
2018-08-19T13:47:33.996Z,44.00
2018-08-19T13:50:01.360Z,44.10
2018-08-19T13:52:28.671Z,44.50
2018-08-19T13:54:58.819Z,44.40
2018-08-19T13:57:26.166Z,44.80
2018-08-19T13:59:53.533Z,44.70
2018-08-19T14:02:20.872Z,44.40
2018-08-19T14:04:48.189Z,44.30
2018-08-19T14:07:15.611Z,44.50
2018-08-19T14:09:42.902Z,44.40
2018-08-19T14:12:10.251Z,44.90
2018-08-19T14:14:37.545Z,45.50
2018-08-19T14:17:05.764Z,44.90
2018-08-19T14:19:36.312Z,45.50
2018-08-19T14:22:03.803Z,45.70
2018-08-19T14:24:31.173Z,45.60
2018-08-19T14:26:58.514Z,45.30
2018-08-19T14:29:25.835Z,44.30
2018-08-19T14:31:53.156Z,45.00
2018-08-19T14:34:20.461Z,45.20
2018-08-19T14:36:47.800Z,44.20
2018-08-19T14:39:15.095Z,44.30
2018-08-19T14:41:42.411Z,44.20
2018-08-19T14:44:09.718Z,45.10
2018-08-19T14:46:37.091Z,44.50
2018-08-19T14:49:04.395Z,44.90
2018-08-19T14:52:04.973Z,44.50
2018-08-19T14:54:32.359Z,44.20
2018-08-19T14:56:59.684Z,44.20
2018-08-19T14:59:27.222Z,43.90
2018-08-19T15:01:54.565Z,43.70
2018-08-19T15:04:21.895Z,43.00
2018-08-19T15:06:49.195Z,42.70
2018-08-19T15:09:18.663Z,42.90
2018-08-19T15:11:46.077Z,43.10
2018-08-19T15:14:14.016Z,43.00
2018-08-19T15:16:41.302Z,42.90
2018-08-19T15:19:09.706Z,43.50
2018-08-19T15:21:37.047Z,43.00
2018-08-19T15:24:04.696Z,42.70
2018-08-19T15:26:32.022Z,43.10
2018-08-19T15:28:59.355Z,42.30
2018-08-19T15:31:26.707Z,42.40
2018-08-19T15:33:54.070Z,42.80
2018-08-19T15:36:21.435Z,43.70
2018-08-19T15:38:48.746Z,43.10
2018-08-19T15:41:16.136Z,43.00
2018-08-19T15:43:43.470Z,42.20
2018-08-19T15:46:10.802Z,42.30
2018-08-19T15:48:38.090Z,42.90
2018-08-19T15:51:05.462Z,43.50
2018-08-19T15:53:32.787Z,42.40
2018-08-19T15:56:00.193Z,42.50
2018-08-19T15:58:28.181Z,43.20
2018-08-19T16:00:55.563Z,41.70
2018-08-19T16:03:22.944Z,42.50
2018-08-19T16:05:50.293Z,42.20
2018-08-19T16:08:17.626Z,42.20
2018-08-19T16:10:44.951Z,42.00
2018-08-19T16:13:12.736Z,41.20
2018-08-19T16:15:40.063Z,40.50
2018-08-19T16:18:07.626Z,40.00
2018-08-19T16:20:34.969Z,40.00
2018-08-19T16:23:02.287Z,40.50
2018-08-19T16:25:29.618Z,41.20
2018-08-19T16:27:56.939Z,40.80
2018-08-19T16:30:24.348Z,40.30
2018-08-19T16:32:51.650Z,39.40
2018-08-19T16:35:18.967Z,39.30
2018-08-19T16:37:46.259Z,39.00
2018-08-19T16:40:13.580Z,38.00
2018-08-19T16:42:41.038Z,36.20
2018-08-19T16:45:08.426Z,36.00
2018-08-19T16:47:35.743Z,35.30
2018-08-19T16:50:03.878Z,35.00
2018-08-19T16:52:31.579Z,35.20
2018-08-19T16:54:58.883Z,35.30
2018-08-19T16:57:26.282Z,36.40
2018-08-19T16:59:53.584Z,36.50
2018-08-19T17:02:21.012Z,36.30
2018-08-19T17:04:48.334Z,36.60
2018-08-19T17:07:15.993Z,37.30
2018-08-19T17:09:43.410Z,36.70
2018-08-19T17:12:10.664Z,37.50
2018-08-19T17:14:38.026Z,37.80
2018-08-19T17:17:05.406Z,38.70
2018-08-19T17:19:32.706Z,39.90
2018-08-19T17:22:03.797Z,40.70
2018-08-19T17:24:31.529Z,40.50
2018-08-19T17:26:58.943Z,41.50
2018-08-19T17:29:27.127Z,42.50
2018-08-19T17:31:54.434Z,44.20
2018-08-19T17:34:21.789Z,45.20
2018-08-19T17:36:49.078Z,45.50
2018-08-19T17:39:16.438Z,46.00
2018-08-19T17:41:43.694Z,46.90
2018-08-19T17:44:11.014Z,47.40
2018-08-19T17:46:38.332Z,47.60
2018-08-19T17:49:06.627Z,47.30
2018-08-19T17:51:33.996Z,47.50
2018-08-19T17:54:01.314Z,47.70
2018-08-19T17:56:28.725Z,47.70
2018-08-19T17:58:57.339Z,47.60
2018-08-19T18:01:24.734Z,47.80
2018-08-19T18:03:52.096Z,48.30
2018-08-19T18:06:19.423Z,48.70
2018-08-19T18:08:46.736Z,48.80
2018-08-19T18:11:14.063Z,49.20
2018-08-19T18:13:41.379Z,49.40
2018-08-19T18:16:09.686Z,49.80
2018-08-19T18:18:37.023Z,50.00
2018-08-19T18:21:04.344Z,50.50
2018-08-19T18:23:31.692Z,51.00
2018-08-19T18:25:59.006Z,51.30
2018-08-19T18:28:26.353Z,51.60
2018-08-19T18:30:54.842Z,51.80
2018-08-19T18:33:22.147Z,51.70
2018-08-19T18:35:49.498Z,52.00
2018-08-19T18:38:25.251Z,52.10
2018-08-19T18:40:52.568Z,52.20
2018-08-19T18:43:19.881Z,52.30
2018-08-19T18:45:48.245Z,52.40
2018-08-19T18:48:17.575Z,52.50
2018-08-19T18:50:45.168Z,52.50
2018-08-19T18:53:12.534Z,52.60
2018-08-19T18:55:39.822Z,52.80
2018-08-19T18:58:07.964Z,53.00
2018-08-19T19:00:36.072Z,53.10
2018-08-19T19:03:03.410Z,53.30
2018-08-19T19:05:33.648Z,53.30
2018-08-19T19:08:01.009Z,53.40
2018-08-19T19:10:28.320Z,53.50
2018-08-19T19:12:55.678Z,53.70
2018-08-19T19:15:22.978Z,53.90
2018-08-19T19:17:50.301Z,54.10
2018-08-19T19:20:17.602Z,54.30
2018-08-19T19:22:44.954Z,54.60
2018-08-19T19:25:12.266Z,54.70
2018-08-19T19:27:39.594Z,54.80
2018-08-19T19:30:06.919Z,54.80
2018-08-19T19:32:34.300Z,54.80
2018-08-19T19:35:01.636Z,54.70
2018-08-19T19:37:28.957Z,54.80
2018-08-19T19:39:56.277Z,55.20
2018-08-19T19:42:23.612Z,55.00
2018-08-19T19:44:50.967Z,54.80
2018-08-19T19:47:18.316Z,54.90
2018-08-19T19:49:45.770Z,54.50
2018-08-19T19:52:12.963Z,54.30
2018-08-19T19:54:40.292Z,54.90
2018-08-19T19:57:07.667Z,55.20
2018-08-19T19:59:35.029Z,55.50
2018-08-19T20:02:02.605Z,55.80
2018-08-19T20:04:33.260Z,55.90
2018-08-19T20:07:00.632Z,56.10
2018-08-19T20:09:27.960Z,56.10
2018-08-19T20:11:56.224Z,56.10
2018-08-19T20:14:23.630Z,56.20
2018-08-19T20:16:50.960Z,56.40
2018-08-19T20:19:18.291Z,56.30
2018-08-19T20:21:45.705Z,56.20
2018-08-19T20:24:12.994Z,56.30
2018-08-19T20:26:40.344Z,56.60
2018-08-19T20:29:07.882Z,56.70
2018-08-19T20:31:35.245Z,57.10
2018-08-19T20:34:02.758Z,57.20
2018-08-19T20:36:30.035Z,57.30
2018-08-19T20:38:57.369Z,57.30
2018-08-19T20:41:24.678Z,57.30
2018-08-19T20:43:51.994Z,57.30
2018-08-19T20:46:19.290Z,57.40
2018-08-19T20:48:46.717Z,57.60
2018-08-19T20:51:14.056Z,57.50
2018-08-19T20:53:41.394Z,57.60
2018-08-19T20:56:08.758Z,57.60
2018-08-19T20:58:36.181Z,57.50
2018-08-19T21:01:04.563Z,57.60
2018-08-19T21:03:32.074Z,58.10
2018-08-19T21:05:59.332Z,57.90
2018-08-19T21:08:26.655Z,57.80
2018-08-19T21:10:53.993Z,57.90
2018-08-19T21:13:21.290Z,57.80
2018-08-19T21:15:48.619Z,57.80
2018-08-19T21:18:15.954Z,57.60
2018-08-19T21:20:43.430Z,57.80
2018-08-19T21:23:11.015Z,57.90
2018-08-19T21:25:39.439Z,57.90
2018-08-19T21:28:06.831Z,58.00
2018-08-19T21:30:34.205Z,58.00
2018-08-19T21:33:01.478Z,57.80
2018-08-19T21:35:30.264Z,58.00
2018-08-19T21:37:57.592Z,57.90
2018-08-19T21:40:24.886Z,58.40
2018-08-19T21:42:55.241Z,58.30
2018-08-19T21:45:22.560Z,58.70
2018-08-19T21:47:49.916Z,58.80
2018-08-19T21:50:17.266Z,58.80
2018-08-19T21:52:56.266Z,59.60
2018-08-19T21:55:23.567Z,59.30
2018-08-19T21:57:50.878Z,59.00
2018-08-19T22:00:18.195Z,59.50
2018-08-19T22:02:45.591Z,59.40
2018-08-19T22:05:12.895Z,59.50
2018-08-19T22:07:40.232Z,59.90
2018-08-19T22:10:07.542Z,59.30
2018-08-19T22:12:34.870Z,59.30
2018-08-19T22:15:02.199Z,60.20
2018-08-19T22:17:29.526Z,60.00
2018-08-19T22:19:57.196Z,59.80
2018-08-19T22:22:24.436Z,59.60
2018-08-19T22:24:51.756Z,59.70
2018-08-19T22:27:19.087Z,60.60
2018-08-19T22:29:46.835Z,60.80
2018-08-19T22:32:14.126Z,60.20
2018-08-19T22:34:41.433Z,59.90
2018-08-19T22:37:08.780Z,61.30
2018-08-19T22:39:36.122Z,61.40
2018-08-19T22:42:03.458Z,61.40
2018-08-19T22:44:30.778Z,62.10
2018-08-19T22:46:58.116Z,62.20
2018-08-19T22:49:26.635Z,61.90
2018-08-19T22:51:54.440Z,61.00
2018-08-19T22:54:21.767Z,62.20
2018-08-19T22:56:49.204Z,62.30
2018-08-19T22:59:16.540Z,61.20
2018-08-19T23:01:43.834Z,61.30
2018-08-19T23:04:11.134Z,61.60
2018-08-19T23:06:38.426Z,61.50
2018-08-19T23:09:06.290Z,61.20
2018-08-19T23:11:33.608Z,61.20
2018-08-19T23:14:12.269Z,61.80
2018-08-19T23:16:39.604Z,62.10
2018-08-19T23:19:06.913Z,61.80
2018-08-19T23:21:34.231Z,62.50
2018-08-19T23:24:01.542Z,62.90
2018-08-19T23:26:28.859Z,62.60
2018-08-19T23:28:56.154Z,63.20
2018-08-19T23:31:23.470Z,62.90
2018-08-19T23:33:51.119Z,63.20
2018-08-19T23:36:18.464Z,63.10
2018-08-19T23:38:45.809Z,63.50
2018-08-19T23:41:13.119Z,63.50
2018-08-19T23:43:40.411Z,63.40
2018-08-19T23:46:07.741Z,63.60
2018-08-19T23:48:35.060Z,64.20
2018-08-19T23:51:02.370Z,64.40
2018-08-19T23:53:29.693Z,65.10
2018-08-19T23:55:57.011Z,65.30
2018-08-19T23:58:24.327Z,65.20
